createdAt,value
2023-05-19T00:01:28.507Z,8.32
2023-05-19T00:03:34.154Z,7.30
2023-05-19T00:05:46.448Z,8.38
2023-05-19T00:07:54.925Z,5.85
2023-05-19T00:10:00.571Z,5.60
2023-05-19T00:12:05.956Z,6.88
2023-05-19T00:14:14.652Z,4.63
2023-05-19T00:16:20.121Z,5.60
2023-05-19T00:18:25.232Z,7.35
2023-05-19T00:20:30.475Z,3.70
2023-05-19T00:22:37.128Z,5.07
2023-05-19T00:24:42.274Z,6.70
2023-05-19T00:26:47.149Z,4.65
2023-05-19T00:28:52.873Z,6.07
2023-05-19T00:31:01.405Z,9.82
2023-05-19T00:33:06.524Z,7.15
2023-05-19T00:35:12.837Z,10.23
2023-05-19T00:37:17.810Z,7.13
2023-05-19T00:39:22.956Z,6.88
2023-05-19T00:41:28.019Z,7.22
2023-05-19T00:43:34.567Z,7.07
2023-05-19T00:45:39.797Z,5.05
2023-05-19T00:47:49.124Z,6.68
2023-05-19T00:49:54.168Z,4.68
2023-05-19T00:51:59.337Z,8.48
2023-05-19T00:54:04.227Z,6.95
2023-05-19T00:56:09.490Z,7.38
2023-05-19T00:58:15.336Z,4.30
2023-05-19T01:00:20.989Z,4.97
2023-05-19T01:02:25.960Z,5.10
2023-05-19T01:04:35.150Z,5.60
2023-05-19T01:06:41.475Z,8.05
2023-05-19T01:08:46.744Z,6.07
2023-05-19T01:10:52.306Z,11.27
2023-05-19T01:12:57.294Z,6.18
2023-05-19T01:15:02.856Z,7.57
2023-05-19T01:17:14.560Z,5.63
2023-05-19T01:19:41.066Z,9.07
2023-05-19T01:22:15.844Z,6.97
2023-05-19T01:24:37.183Z,5.95
2023-05-19T01:27:12.919Z,5.25
2023-05-19T01:29:39.135Z,5.28
2023-05-19T01:31:49.170Z,6.45
2023-05-19T01:33:56.820Z,4.45
2023-05-19T01:36:03.482Z,8.50
2023-05-19T01:38:13.180Z,8.05
2023-05-19T01:40:18.845Z,7.78
2023-05-19T01:42:25.363Z,6.40
2023-05-19T01:44:30.841Z,5.20
2023-05-19T01:46:37.032Z,6.40
2023-05-19T01:48:45.646Z,11.18
2023-05-19T01:50:52.096Z,7.55
2023-05-19T01:52:57.442Z,7.80
2023-05-19T01:55:02.369Z,6.30
2023-05-19T01:57:15.850Z,4.55
2023-05-19T01:59:34.656Z,6.43
2023-05-19T02:01:51.671Z,15.57
2023-05-19T02:04:12.173Z,10.88
2023-05-19T02:06:26.374Z,7.25
2023-05-19T02:08:35.962Z,7.38
2023-05-19T02:10:45.777Z,7.63
2023-05-19T02:12:55.443Z,8.30
2023-05-19T02:15:07.254Z,8.32
2023-05-19T02:17:15.839Z,7.05
2023-05-19T02:19:28.100Z,6.05
2023-05-19T02:21:34.102Z,5.72
2023-05-19T02:23:39.034Z,4.85
2023-05-19T02:25:44.131Z,7.18
2023-05-19T02:27:49.624Z,6.65
2023-05-19T02:29:54.822Z,5.32
2023-05-19T02:31:59.667Z,10.93
2023-05-19T02:34:04.983Z,7.35
2023-05-19T02:36:14.724Z,6.15
2023-05-19T02:38:19.681Z,5.88
2023-05-19T02:40:25.393Z,7.88
2023-05-19T02:42:30.674Z,5.13
2023-05-19T02:44:35.829Z,7.15
2023-05-19T02:46:41.108Z,7.60
2023-05-19T02:48:46.118Z,5.65
2023-05-19T02:50:51.206Z,7.93
2023-05-19T02:52:58.697Z,6.28
2023-05-19T02:55:03.949Z,6.75
2023-05-19T02:57:09.840Z,7.40
2023-05-19T02:59:14.841Z,6.35
2023-05-19T03:01:21.580Z,8.88
2023-05-19T03:03:27.343Z,7.00
2023-05-19T03:05:33.057Z,7.90
2023-05-19T03:07:37.944Z,6.05
2023-05-19T03:09:45.740Z,6.10
2023-05-19T03:11:50.736Z,5.20
2023-05-19T03:13:55.725Z,8.13
2023-05-19T03:16:02.376Z,5.93
2023-05-19T03:18:09.197Z,7.28
2023-05-19T03:20:16.235Z,6.90
2023-05-19T03:22:21.828Z,5.90
2023-05-19T03:24:26.991Z,8.18
2023-05-19T03:26:34.626Z,6.78
2023-05-19T03:28:39.535Z,7.93
2023-05-19T03:30:44.651Z,7.28
2023-05-19T03:32:54.329Z,5.75
2023-05-19T03:34:59.526Z,6.15
2023-05-19T03:37:04.837Z,7.03
2023-05-19T03:39:10.239Z,8.77
2023-05-19T03:41:15.735Z,6.50
2023-05-19T03:43:23.555Z,6.10
2023-05-19T03:45:34.454Z,8.27
2023-05-19T03:47:59.615Z,7.72
2023-05-19T03:50:38.276Z,6.40
2023-05-19T03:52:53.807Z,6.38
2023-05-19T03:55:11.975Z,5.70
2023-05-19T03:57:17.983Z,6.32
2023-05-19T03:59:26.410Z,8.15
2023-05-19T04:01:31.614Z,8.63
2023-05-19T04:03:36.692Z,7.20
2023-05-19T04:05:42.452Z,7.78
2023-05-19T04:07:47.382Z,8.20
2023-05-19T04:09:52.662Z,8.10
2023-05-19T04:11:58.033Z,8.88
2023-05-19T04:14:03.032Z,9.43
2023-05-19T04:16:11.021Z,8.55
2023-05-19T04:18:15.919Z,8.98
2023-05-19T04:20:21.362Z,5.55
2023-05-19T04:22:26.596Z,9.13
2023-05-19T04:24:31.642Z,7.72
2023-05-19T04:26:38.631Z,6.65
2023-05-19T04:28:44.930Z,7.82
2023-05-19T04:30:50.777Z,8.52
2023-05-19T04:32:58.426Z,6.05
2023-05-19T04:35:04.228Z,9.32
2023-05-19T04:37:10.584Z,9.00
2023-05-19T04:39:17.221Z,6.05
2023-05-19T04:41:24.296Z,9.55
2023-05-19T04:43:29.431Z,9.18
2023-05-19T04:45:34.406Z,7.55
2023-05-19T04:47:42.057Z,8.18
2023-05-19T04:49:49.744Z,7.40
2023-05-19T04:51:56.803Z,9.10
2023-05-19T04:54:06.676Z,9.23
2023-05-19T04:56:15.488Z,6.30
2023-05-19T04:58:21.578Z,7.32
2023-05-19T05:00:27.217Z,6.53
2023-05-19T05:02:37.380Z,9.00
2023-05-19T05:04:44.414Z,7.93
2023-05-19T05:06:52.391Z,9.48
2023-05-19T05:08:57.582Z,12.43
2023-05-19T05:11:04.294Z,7.93
2023-05-19T05:13:11.866Z,9.18
2023-05-19T05:15:18.236Z,8.85
2023-05-19T05:17:28.494Z,7.82
2023-05-19T05:19:34.069Z,6.20
2023-05-19T05:21:40.135Z,8.52
2023-05-19T05:23:48.625Z,8.15
2023-05-19T05:25:54.336Z,7.85
2023-05-19T05:28:05.346Z,6.43
2023-05-19T05:30:12.758Z,7.55
2023-05-19T05:32:19.302Z,6.57
2023-05-19T05:34:24.285Z,9.75
2023-05-19T05:36:29.600Z,11.05
2023-05-19T05:38:35.256Z,9.48
2023-05-19T05:40:43.910Z,9.38
2023-05-19T05:42:48.982Z,8.95
2023-05-19T05:44:55.843Z,9.57
2023-05-19T05:47:01.412Z,7.82
2023-05-19T05:49:06.947Z,7.38
2023-05-19T05:51:12.957Z,7.72
2023-05-19T05:53:22.226Z,6.70
2023-05-19T05:55:31.961Z,7.63
2023-05-19T05:57:42.089Z,9.00
2023-05-19T05:59:48.206Z,9.07
2023-05-19T06:01:53.835Z,9.10
2023-05-19T06:03:59.174Z,10.40
2023-05-19T06:06:04.696Z,7.05
2023-05-19T06:08:09.673Z,8.35
2023-05-19T06:10:15.327Z,6.90
2023-05-19T06:12:20.216Z,7.43
2023-05-19T06:14:30.354Z,8.32
2023-05-19T06:17:01.607Z,7.38
2023-05-19T06:19:07.714Z,8.32
2023-05-19T06:21:13.891Z,8.07
2023-05-19T06:23:20.221Z,7.65
2023-05-19T06:25:26.024Z,10.65
2023-05-19T06:27:33.296Z,7.40
2023-05-19T06:29:42.588Z,9.30
2023-05-19T06:31:47.792Z,6.97
2023-05-19T06:33:55.254Z,6.10
2023-05-19T06:36:00.237Z,8.38
2023-05-19T06:38:05.060Z,6.82
2023-05-19T06:40:12.518Z,6.43
2023-05-19T06:42:22.314Z,6.68
2023-05-19T06:44:47.652Z,7.00
2023-05-19T06:46:54.041Z,5.47
2023-05-19T06:48:59.032Z,5.88
2023-05-19T06:51:05.229Z,7.32
2023-05-19T06:53:12.361Z,5.85
2023-05-19T06:55:17.677Z,5.60
2023-05-19T06:57:22.551Z,5.25
2023-05-19T06:59:27.583Z,13.55
2023-05-19T07:01:35.259Z,4.88
2023-05-19T07:03:41.576Z,5.60
2023-05-19T07:05:47.642Z,5.25
2023-05-19T07:07:52.886Z,4.85
2023-05-19T07:10:01.926Z,3.97
2023-05-19T07:12:09.338Z,4.47
2023-05-19T07:14:14.241Z,5.13
2023-05-19T07:16:19.642Z,4.72
2023-05-19T07:18:27.509Z,3.97
2023-05-19T07:20:32.605Z,5.90
2023-05-19T07:22:38.759Z,5.32
2023-05-19T07:24:44.577Z,4.18
2023-05-19T07:26:49.514Z,5.30
2023-05-19T07:28:54.854Z,4.43
2023-05-19T07:30:59.972Z,4.88
2023-05-19T07:33:04.885Z,5.07
2023-05-19T07:35:12.482Z,3.60
2023-05-19T07:37:17.552Z,5.57
2023-05-19T07:39:22.591Z,5.68
2023-05-19T07:41:27.668Z,4.40
2023-05-19T07:43:32.844Z,4.90
2023-05-19T07:45:37.744Z,6.05
2023-05-19T07:47:42.772Z,4.57
2023-05-19T07:49:49.680Z,4.90
2023-05-19T07:51:58.955Z,5.20
2023-05-19T07:54:03.967Z,5.82
2023-05-19T07:56:08.892Z,6.45
2023-05-19T07:58:13.823Z,6.70
2023-05-19T08:00:19.957Z,6.78
2023-05-19T08:02:24.947Z,6.18
2023-05-19T08:04:30.251Z,5.38
2023-05-19T08:06:35.448Z,5.10
2023-05-19T08:08:43.581Z,5.25
2023-05-19T08:10:49.100Z,4.32
2023-05-19T08:12:54.009Z,4.60
2023-05-19T08:15:01.321Z,4.90
2023-05-19T08:17:07.381Z,4.47
2023-05-19T08:19:12.942Z,4.82
2023-05-19T08:21:18.131Z,4.10
2023-05-19T08:23:23.134Z,3.78
2023-05-19T08:25:30.951Z,5.32
2023-05-19T08:27:36.506Z,4.30
2023-05-19T08:29:41.438Z,4.35
2023-05-19T08:31:46.422Z,5.60
2023-05-19T08:33:51.630Z,4.25
2023-05-19T08:35:58.264Z,3.92
2023-05-19T08:38:03.242Z,3.45
2023-05-19T08:40:09.332Z,4.68
2023-05-19T08:42:17.131Z,4.38
2023-05-19T08:44:22.361Z,6.18
2023-05-19T08:46:28.673Z,5.95
2023-05-19T08:48:34.083Z,3.92
2023-05-19T08:50:44.369Z,3.60
2023-05-19T08:52:57.990Z,4.65
2023-05-19T08:55:07.585Z,3.50
2023-05-19T08:57:12.688Z,4.85
2023-05-19T08:59:21.833Z,3.55
2023-05-19T09:01:27.291Z,4.40
2023-05-19T09:03:33.042Z,4.10
2023-05-19T09:05:38.281Z,5.35
2023-05-19T09:07:43.575Z,5.53
2023-05-19T09:09:49.075Z,3.78
2023-05-19T09:11:53.926Z,4.10
2023-05-19T09:13:59.025Z,4.07
2023-05-19T09:16:06.959Z,5.38
2023-05-19T09:18:13.066Z,3.63
2023-05-19T09:20:20.203Z,4.05
2023-05-19T09:22:25.592Z,4.40
2023-05-19T09:24:31.871Z,5.10
2023-05-19T09:26:41.408Z,4.40
2023-05-19T09:28:46.279Z,5.07
2023-05-19T09:30:51.131Z,5.40
2023-05-19T09:32:59.495Z,5.22
2023-05-19T09:35:05.864Z,4.38
2023-05-19T09:37:10.950Z,5.63
2023-05-19T09:39:19.856Z,4.50
2023-05-19T09:41:25.204Z,4.97
2023-05-19T09:43:32.136Z,6.20
2023-05-19T09:45:37.352Z,4.28
2023-05-19T09:47:44.115Z,4.20
2023-05-19T09:49:52.792Z,4.55
2023-05-19T09:51:58.747Z,5.07
2023-05-19T09:54:04.619Z,5.68
2023-05-19T09:56:12.582Z,5.10
2023-05-19T09:58:20.697Z,4.72
2023-05-19T10:00:26.826Z,4.80
2023-05-19T10:02:33.380Z,4.80
2023-05-19T10:04:39.219Z,5.10
2023-05-19T10:06:47.701Z,8.82
2023-05-19T10:08:54.886Z,6.05
2023-05-19T10:11:00.835Z,6.55
2023-05-19T10:13:07.012Z,5.07
2023-05-19T10:15:14.379Z,6.15
2023-05-19T10:17:19.445Z,6.10
2023-05-19T10:19:25.974Z,5.80
2023-05-19T10:21:31.260Z,5.63
2023-05-19T10:23:39.174Z,4.60
2023-05-19T10:25:45.223Z,4.40
2023-05-19T10:27:57.139Z,4.68
2023-05-19T10:30:05.479Z,4.70
2023-05-19T10:32:15.437Z,4.55
2023-05-19T10:34:40.800Z,5.22
2023-05-19T10:36:52.578Z,5.30
2023-05-19T10:39:08.190Z,5.63
2023-05-19T10:41:19.832Z,5.13
2023-05-19T10:43:33.985Z,7.68
2023-05-19T10:45:49.025Z,5.13
2023-05-19T10:47:54.748Z,7.53
2023-05-19T10:50:03.254Z,6.75
2023-05-19T10:52:22.321Z,5.15
2023-05-19T10:54:45.436Z,4.57
2023-05-19T10:56:50.289Z,6.60
2023-05-19T10:58:55.527Z,5.93
2023-05-19T11:01:03.897Z,5.72
2023-05-19T11:03:18.889Z,5.55
2023-05-19T11:05:32.280Z,5.30
2023-05-19T11:07:37.515Z,5.47
2023-05-19T11:09:46.233Z,5.93
2023-05-19T11:11:52.701Z,5.00
2023-05-19T11:13:58.920Z,4.78
2023-05-19T11:16:10.396Z,5.40
2023-05-19T11:18:18.236Z,4.63
2023-05-19T11:20:27.348Z,4.55
2023-05-19T11:22:32.253Z,7.00
2023-05-19T11:24:40.217Z,6.28
2023-05-19T11:26:48.825Z,7.30
2023-05-19T11:28:54.504Z,4.47
2023-05-19T11:31:02.498Z,6.07
2023-05-19T11:33:08.503Z,5.18
2023-05-19T11:35:13.552Z,5.10
2023-05-19T11:37:20.063Z,6.93
2023-05-19T11:39:24.868Z,6.07
2023-05-19T11:41:31.235Z,5.05
2023-05-19T11:43:38.980Z,4.38
2023-05-19T11:45:43.868Z,4.00
2023-05-19T11:48:01.128Z,5.13
2023-05-19T11:50:07.925Z,4.43
2023-05-19T11:52:12.864Z,5.90
2023-05-19T11:54:17.779Z,4.28
2023-05-19T11:56:22.739Z,3.60
2023-05-19T11:58:29.871Z,4.72
2023-05-19T12:00:40.355Z,4.93
2023-05-19T12:02:46.016Z,4.55
2023-05-19T12:04:51.539Z,3.90
2023-05-19T12:06:56.767Z,4.05
2023-05-19T12:09:01.780Z,4.03
2023-05-19T12:11:08.147Z,3.92
2023-05-19T12:13:13.424Z,5.40
2023-05-19T12:15:19.105Z,4.60
2023-05-19T12:17:26.805Z,4.35
2023-05-19T12:19:31.955Z,3.40
2023-05-19T12:21:37.537Z,3.78
2023-05-19T12:23:43.471Z,5.07
2023-05-19T12:25:48.647Z,3.67
2023-05-19T12:27:56.828Z,5.47
2023-05-19T12:30:02.959Z,6.53
2023-05-19T12:32:08.533Z,4.78
2023-05-19T12:34:19.357Z,5.13
2023-05-19T12:36:27.279Z,7.18
2023-05-19T12:38:32.254Z,5.35
2023-05-19T12:40:38.586Z,4.28
2023-05-19T12:42:48.903Z,4.28
2023-05-19T12:44:55.116Z,5.75
2023-05-19T12:47:00.744Z,4.20
2023-05-19T12:49:05.592Z,4.65
2023-05-19T12:51:13.115Z,4.05
2023-05-19T12:53:18.417Z,5.57
2023-05-19T12:55:23.796Z,4.65
2023-05-19T12:57:29.556Z,4.32
2023-05-19T12:59:38.640Z,5.28
2023-05-19T13:01:43.868Z,3.53
2023-05-19T13:03:49.143Z,3.45
2023-05-19T13:05:54.343Z,5.45
2023-05-19T13:08:04.879Z,5.05
2023-05-19T13:10:11.057Z,5.07
2023-05-19T13:12:15.943Z,4.05
2023-05-19T13:14:21.414Z,4.07
2023-05-19T13:16:26.602Z,4.03
2023-05-19T13:18:32.789Z,2.95
2023-05-19T13:20:38.110Z,5.00
2023-05-19T13:22:43.319Z,6.28
2023-05-19T13:24:53.440Z,4.07
2023-05-19T13:26:58.442Z,3.95
2023-05-19T13:29:03.592Z,4.20
2023-05-19T13:31:08.469Z,4.22
2023-05-19T13:33:13.442Z,4.15
2023-05-19T13:35:18.801Z,3.78
2023-05-19T13:37:23.688Z,3.63
2023-05-19T13:39:29.068Z,3.17
2023-05-19T13:41:38.618Z,5.03
2023-05-19T13:43:43.821Z,3.78
2023-05-19T13:45:48.977Z,5.25
2023-05-19T13:47:54.188Z,4.28
2023-05-19T13:49:59.169Z,4.32
2023-05-19T13:52:04.054Z,3.50
2023-05-19T13:54:09.356Z,3.17
2023-05-19T13:56:14.244Z,3.90
2023-05-19T13:58:22.651Z,3.40
2023-05-19T14:00:27.750Z,4.32
2023-05-19T14:02:33.217Z,3.22
2023-05-19T14:04:40.733Z,3.35
2023-05-19T14:06:45.600Z,3.83
2023-05-19T14:08:51.540Z,3.60
2023-05-19T14:10:58.294Z,3.95
2023-05-19T14:13:30.368Z,4.45
2023-05-19T14:15:35.326Z,3.97
2023-05-19T14:17:40.544Z,5.10
2023-05-19T14:19:45.408Z,3.95
2023-05-19T14:21:50.291Z,3.30
2023-05-19T14:23:55.580Z,4.43
2023-05-19T14:26:00.565Z,3.10
2023-05-19T14:28:05.397Z,3.90
2023-05-19T14:30:11.936Z,4.05
2023-05-19T14:32:19.716Z,4.60
2023-05-19T14:34:24.912Z,3.40
2023-05-19T14:36:29.857Z,4.53
2023-05-19T14:38:34.842Z,3.30
2023-05-19T14:40:41.490Z,3.83
2023-05-19T14:42:46.539Z,4.53
2023-05-19T14:44:51.607Z,3.30
2023-05-19T14:46:56.450Z,3.63
2023-05-19T14:49:03.909Z,3.63
2023-05-19T14:51:08.825Z,3.90
2023-05-19T14:53:14.154Z,4.70
2023-05-19T14:55:19.278Z,4.03
2023-05-19T14:57:24.389Z,3.20
2023-05-19T14:59:29.904Z,3.80
2023-05-19T15:01:35.077Z,5.20
2023-05-19T15:03:40.627Z,3.38
2023-05-19T15:05:49.796Z,4.18
2023-05-19T15:07:54.876Z,4.47
2023-05-19T15:10:00.226Z,3.13
2023-05-19T15:12:05.668Z,3.85
2023-05-19T15:14:11.239Z,3.70
2023-05-19T15:16:18.280Z,3.42
2023-05-19T15:18:23.462Z,4.38
2023-05-19T15:20:29.594Z,4.30
2023-05-19T15:22:37.269Z,5.57
2023-05-19T15:24:42.229Z,3.65
2023-05-19T15:26:47.315Z,4.80
2023-05-19T15:28:52.348Z,4.45
2023-05-19T15:30:57.394Z,3.22
2023-05-19T15:33:02.558Z,3.33
2023-05-19T15:35:08.126Z,4.85
2023-05-19T15:37:13.037Z,4.10
2023-05-19T15:39:20.532Z,4.80
2023-05-19T15:41:25.976Z,4.00
2023-05-19T15:43:31.208Z,4.35
2023-05-19T15:45:39.300Z,3.75
2023-05-19T15:47:44.215Z,4.55
2023-05-19T15:49:49.264Z,3.85
2023-05-19T15:51:54.101Z,4.25
2023-05-19T15:53:59.025Z,6.53
2023-05-19T15:56:07.426Z,5.47
2023-05-19T15:58:13.962Z,4.47
2023-05-19T16:00:19.262Z,4.38
2023-05-19T16:02:24.405Z,4.15
2023-05-19T16:04:29.259Z,3.28
2023-05-19T16:06:34.341Z,4.05
2023-05-19T16:08:39.222Z,3.15
2023-05-19T16:10:44.337Z,4.07
2023-05-19T16:12:52.096Z,6.13
2023-05-19T16:14:57.457Z,8.13
2023-05-19T16:17:02.299Z,12.70
2023-05-19T16:19:07.306Z,7.18
2023-05-19T16:21:12.581Z,7.60
2023-05-19T16:23:17.615Z,6.97
2023-05-19T16:25:23.122Z,5.40
2023-05-19T16:27:27.953Z,4.45
2023-05-19T16:29:35.684Z,3.47
2023-05-19T16:31:41.075Z,3.55
2023-05-19T16:33:46.421Z,3.03
2023-05-19T16:35:51.391Z,4.22
2023-05-19T16:37:56.303Z,4.55
2023-05-19T16:40:01.313Z,4.38
2023-05-19T16:42:06.355Z,4.43
2023-05-19T16:44:14.798Z,3.90
2023-05-19T16:46:22.272Z,3.88
2023-05-19T16:48:27.264Z,3.47
2023-05-19T16:50:32.541Z,5.15
2023-05-19T16:52:37.450Z,4.38
2023-05-19T16:54:42.564Z,3.80
2023-05-19T16:56:47.814Z,4.10
2023-05-19T16:58:54.112Z,4.43
2023-05-19T17:00:59.109Z,3.60
2023-05-19T17:03:07.076Z,3.70
2023-05-19T17:05:12.359Z,3.78
2023-05-19T17:07:17.940Z,3.60
2023-05-19T17:09:26.156Z,3.92
2023-05-19T17:11:30.952Z,3.60
2023-05-19T17:13:36.839Z,3.22
2023-05-19T17:15:43.242Z,4.63
2023-05-19T17:17:48.407Z,3.65
2023-05-19T17:19:55.977Z,2.95
2023-05-19T17:22:00.823Z,4.07
2023-05-19T17:24:05.610Z,5.10
2023-05-19T17:26:10.584Z,6.30
2023-05-19T17:28:15.357Z,3.80
2023-05-19T17:30:20.138Z,3.42
2023-05-19T17:32:28.478Z,4.25
2023-05-19T17:34:33.447Z,3.90
2023-05-19T17:36:40.930Z,4.72
2023-05-19T17:38:45.824Z,3.47
2023-05-19T17:40:50.690Z,6.60
2023-05-19T17:42:55.537Z,13.75
2023-05-19T17:45:00.330Z,8.88
2023-05-19T17:47:07.397Z,7.65
2023-05-19T17:49:14.057Z,3.90
2023-05-19T17:51:19.290Z,9.48
2023-05-19T17:53:27.307Z,5.53
2023-05-19T17:55:33.216Z,4.55
2023-05-19T17:57:39.261Z,4.72
2023-05-19T17:59:45.099Z,5.32
2023-05-19T18:01:50.420Z,4.18
2023-05-19T18:03:56.196Z,4.93
2023-05-19T18:06:03.557Z,4.93
2023-05-19T18:08:09.904Z,5.65
2023-05-19T18:10:18.320Z,3.83
2023-05-19T18:12:23.460Z,3.95
2023-05-19T18:14:28.304Z,4.78
2023-05-19T18:16:33.179Z,4.28
2023-05-19T18:18:40.292Z,4.93
2023-05-19T18:20:45.905Z,3.35
2023-05-19T18:22:50.662Z,4.30
2023-05-19T18:24:55.549Z,3.53
2023-05-19T18:27:03.434Z,4.68
2023-05-19T18:29:08.250Z,7.40
2023-05-19T18:31:17.601Z,6.30
2023-05-19T18:33:24.165Z,8.95
2023-05-19T18:35:30.296Z,11.38
2023-05-19T18:37:35.147Z,13.00
2023-05-19T18:39:40.361Z,12.80
2023-05-19T18:41:46.040Z,10.05
2023-05-19T18:43:53.627Z,7.10
2023-05-19T18:45:58.596Z,6.68
2023-05-19T18:48:03.471Z,6.10
2023-05-19T18:50:10.355Z,5.05
2023-05-19T18:52:15.256Z,5.38
2023-05-19T18:54:21.800Z,6.10
2023-05-19T18:56:27.001Z,3.55
2023-05-19T18:58:31.844Z,5.68
2023-05-19T19:00:40.610Z,5.20
2023-05-19T19:02:45.512Z,3.17
2023-05-19T19:04:50.391Z,3.35
2023-05-19T19:06:55.346Z,3.60
2023-05-19T19:09:00.224Z,3.60
2023-05-19T19:11:09.407Z,3.72
2023-05-19T19:13:14.114Z,4.50
2023-05-19T19:15:19.002Z,3.78
2023-05-19T19:17:26.868Z,4.30
2023-05-19T19:19:32.171Z,4.50
2023-05-19T19:21:37.028Z,3.95
2023-05-19T19:23:41.863Z,4.03
2023-05-19T19:25:46.597Z,3.67
2023-05-19T19:27:51.418Z,3.75
2023-05-19T19:29:56.475Z,4.68
2023-05-19T19:32:01.482Z,4.05
2023-05-19T19:34:09.630Z,4.00
2023-05-19T19:36:14.417Z,3.15
2023-05-19T19:38:19.197Z,5.05
2023-05-19T19:40:25.124Z,7.00
2023-05-19T19:42:30.474Z,9.75
2023-05-19T19:44:35.253Z,5.18
2023-05-19T19:46:40.098Z,4.47
2023-05-19T19:48:44.933Z,2.85
2023-05-19T19:50:56.790Z,3.90
2023-05-19T19:53:01.854Z,3.75
2023-05-19T19:55:07.489Z,3.33
2023-05-19T19:57:12.412Z,3.20
2023-05-19T19:59:17.170Z,3.40
2023-05-19T20:01:23.887Z,3.60
2023-05-19T20:03:29.628Z,3.83
2023-05-19T20:05:34.815Z,5.53
2023-05-19T20:07:42.218Z,10.48
2023-05-19T20:09:47.060Z,4.80
2023-05-19T20:11:51.818Z,3.22
2023-05-19T20:13:56.662Z,3.55
2023-05-19T20:16:01.596Z,3.80
2023-05-19T20:18:06.529Z,3.85
2023-05-19T20:20:12.574Z,3.25
2023-05-19T20:22:17.417Z,3.60
2023-05-19T20:24:24.759Z,3.08
2023-05-19T20:26:29.567Z,3.15
2023-05-19T20:28:35.955Z,4.35
2023-05-19T20:30:41.271Z,3.30
2023-05-19T20:32:46.868Z,3.25
2023-05-19T20:34:51.847Z,3.97
2023-05-19T20:36:56.673Z,2.75
2023-05-19T20:39:01.583Z,3.10
2023-05-19T20:41:09.060Z,3.38
2023-05-19T20:43:13.875Z,2.25
2023-05-19T20:45:18.699Z,4.22
2023-05-19T20:47:23.878Z,2.72
2023-05-19T20:49:28.657Z,4.13
2023-05-19T20:51:33.464Z,3.28
2023-05-19T20:53:38.228Z,2.88
2023-05-19T20:55:43.476Z,3.00
2023-05-19T20:57:50.934Z,4.03
2023-05-19T20:59:55.705Z,2.75
2023-05-19T21:02:00.471Z,3.33
2023-05-19T21:04:07.954Z,3.85
2023-05-19T21:06:12.829Z,2.53
2023-05-19T21:08:17.809Z,2.90
2023-05-19T21:10:22.848Z,4.95
2023-05-19T21:12:34.285Z,2.38
2023-05-19T21:14:41.835Z,3.85
2023-05-19T21:16:46.710Z,4.90
2023-05-19T21:18:51.568Z,3.03
2023-05-19T21:20:56.417Z,3.30
2023-05-19T21:23:01.349Z,2.95
2023-05-19T21:25:06.331Z,3.47
2023-05-19T21:27:11.156Z,3.28
2023-05-19T21:29:15.983Z,2.67
2023-05-19T21:31:23.420Z,4.68
2023-05-19T21:33:28.593Z,3.75
2023-05-19T21:35:33.418Z,4.47
2023-05-19T21:37:38.452Z,4.35
2023-05-19T21:39:43.234Z,3.10
2023-05-19T21:41:48.124Z,4.90
2023-05-19T21:43:52.889Z,2.75
2023-05-19T21:45:57.814Z,4.32
2023-05-19T21:48:05.401Z,2.90
2023-05-19T21:50:15.762Z,3.25
2023-05-19T21:52:20.736Z,4.05
2023-05-19T21:54:25.572Z,3.45
2023-05-19T21:56:30.287Z,3.17
2023-05-19T21:58:35.043Z,3.88
2023-05-19T22:00:39.857Z,3.53
2023-05-19T22:02:45.005Z,3.40
2023-05-19T22:04:52.447Z,3.78
2023-05-19T22:06:57.270Z,3.20
2023-05-19T22:09:02.827Z,3.22
2023-05-19T22:11:08.484Z,3.80
2023-05-19T22:13:13.352Z,5.25
2023-05-19T22:15:18.212Z,4.22
2023-05-19T22:17:22.980Z,4.47
2023-05-19T22:19:27.920Z,4.28
2023-05-19T22:21:35.264Z,5.70
2023-05-19T22:23:40.091Z,4.22
2023-05-19T22:25:44.902Z,3.65
2023-05-19T22:27:49.781Z,4.78
2023-05-19T22:29:54.643Z,3.35
2023-05-19T22:31:59.533Z,3.38
2023-05-19T22:34:04.283Z,3.55
2023-05-19T22:36:11.193Z,3.75
2023-05-19T22:38:18.768Z,3.20
2023-05-19T22:40:23.634Z,3.67
2023-05-19T22:42:28.818Z,3.47
2023-05-19T22:44:33.780Z,3.08
2023-05-19T22:46:38.604Z,3.28
2023-05-19T22:48:43.405Z,3.58
2023-05-19T22:50:48.336Z,5.55
2023-05-19T22:52:53.363Z,3.13
2023-05-19T22:55:00.779Z,4.05
2023-05-19T22:57:06.708Z,3.63
2023-05-19T22:59:11.544Z,4.15
2023-05-19T23:01:17.335Z,3.78
2023-05-19T23:03:22.282Z,3.78
2023-05-19T23:05:27.217Z,5.82
2023-05-19T23:07:32.146Z,3.38
2023-05-19T23:09:36.993Z,4.32
2023-05-19T23:11:44.401Z,4.88
2023-05-19T23:13:49.228Z,3.58
2023-05-19T23:15:54.013Z,3.45
2023-05-19T23:17:59.070Z,3.47
2023-05-19T23:20:03.900Z,3.10
2023-05-19T23:22:09.758Z,4.32
2023-05-19T23:24:15.843Z,4.55
2023-05-19T23:26:21.572Z,3.90
2023-05-19T23:28:29.030Z,4.53
2023-05-19T23:30:33.837Z,3.75
2023-05-19T23:32:38.643Z,3.42
2023-05-19T23:34:43.480Z,4.07
2023-05-19T23:36:48.261Z,3.40
2023-05-19T23:38:53.015Z,3.83
2023-05-19T23:40:57.832Z,3.28
2023-05-19T23:43:02.797Z,3.63
2023-05-19T23:45:11.476Z,4.15
2023-05-19T23:47:16.249Z,4.18
2023-05-19T23:49:21.120Z,3.97
2023-05-19T23:51:26.083Z,3.72
2023-05-19T23:53:30.914Z,4.50
2023-05-19T23:55:36.008Z,4.32
2023-05-19T23:57:40.952Z,3.92
2023-05-19T23:59:45.970Z,5.10
